sensor_id;sensor_type;location;lat;lon;timestamp;temperature;humidity
48454;DHT22;34261;55.678;12.464;2024-03-17T00:13:48;3.90;99.90
48454;DHT22;34261;55.678;12.464;2024-03-17T00:16:24;4.00;99.90
48454;DHT22;34261;55.678;12.464;2024-03-17T00:19:08;4.10;99.90
48454;DHT22;34261;55.678;12.464;2024-03-17T00:21:55;4.10;99.90
48454;DHT22;34261;55.678;12.464;2024-03-17T00:24:22;4.10;99.90
48454;DHT22;34261;55.678;12.464;2024-03-17T00:27:08;4.10;99.90
48454;DHT22;34261;55.678;12.464;2024-03-17T00:29:44;4.10;99.90
48454;DHT22;34261;55.678;12.464;2024-03-17T00:32:57;4.10;99.90
48454;DHT22;34261;55.678;12.464;2024-03-17T00:36:00;4.10;99.90
48454;DHT22;34261;55.678;12.464;2024-03-17T00:38:40;4.20;99.90
48454;DHT22;34261;55.678;12.464;2024-03-17T00:41:22;4.10;99.90
48454;DHT22;34261;55.678;12.464;2024-03-17T00:43:51;4.00;99.90
48454;DHT22;34261;55.678;12.464;2024-03-17T00:46:32;4.00;99.90
48454;DHT22;34261;55.678;12.464;2024-03-17T00:49:09;4.00;99.90
48454;DHT22;34261;55.678;12.464;2024-03-17T00:51:50;4.00;99.90
48454;DHT22;34261;55.678;12.464;2024-03-17T01:03:47;3.90;99.90
48454;DHT22;34261;55.678;12.464;2024-03-17T01:06:39;3.90;99.90
48454;DHT22;34261;55.678;12.464;2024-03-17T01:09:34;4.00;99.90
48454;DHT22;34261;55.678;12.464;2024-03-17T01:12:01;3.90;99.90
48454;DHT22;34261;55.678;12.464;2024-03-17T01:14:37;3.80;99.90
48454;DHT22;34261;55.678;12.464;2024-03-17T01:17:16;3.70;99.90
48454;DHT22;34261;55.678;12.464;2024-03-17T01:20:22;3.70;99.90
48454;DHT22;34261;55.678;12.464;2024-03-17T01:29:13;3.60;99.90
48454;DHT22;34261;55.678;12.464;2024-03-17T01:31:39;3.60;99.90
48454;DHT22;34261;55.678;12.464;2024-03-17T01:34:09;3.60;99.90
48454;DHT22;34261;55.678;12.464;2024-03-17T01:36:55;3.60;99.90
48454;DHT22;34261;55.678;12.464;2024-03-17T01:39:26;3.60;99.90
48454;DHT22;34261;55.678;12.464;2024-03-17T01:51:13;3.70;99.90
48454;DHT22;34261;55.678;12.464;2024-03-17T01:54:07;3.80;99.90
48454;DHT22;34261;55.678;12.464;2024-03-17T01:57:12;3.80;99.90
48454;DHT22;34261;55.678;12.464;2024-03-17T01:59:42;3.90;99.90
48454;DHT22;34261;55.678;12.464;2024-03-17T02:02:52;3.80;99.90
48454;DHT22;34261;55.678;12.464;2024-03-17T02:05:58;3.70;99.90
48454;DHT22;34261;55.678;12.464;2024-03-17T02:08:45;3.70;99.90
48454;DHT22;34261;55.678;12.464;2024-03-17T02:11:34;3.70;99.90
48454;DHT22;34261;55.678;12.464;2024-03-17T02:23:27;3.60;99.90
48454;DHT22;34261;55.678;12.464;2024-03-17T02:55:28;3.50;99.90
48454;DHT22;34261;55.678;12.464;2024-03-17T02:57:55;3.50;99.90
48454;DHT22;34261;55.678;12.464;2024-03-17T03:00:21;3.50;99.90
48454;DHT22;34261;55.678;12.464;2024-03-17T03:02:47;3.40;99.90
48454;DHT22;34261;55.678;12.464;2024-03-17T03:05:12;3.40;99.90
48454;DHT22;34261;55.678;12.464;2024-03-17T03:07:38;3.50;99.90
48454;DHT22;34261;55.678;12.464;2024-03-17T03:10:04;3.50;99.90
48454;DHT22;34261;55.678;12.464;2024-03-17T03:12:33;3.50;99.90
48454;DHT22;34261;55.678;12.464;2024-03-17T03:14:59;3.60;99.90
48454;DHT22;34261;55.678;12.464;2024-03-17T03:17:25;3.60;99.90
48454;DHT22;34261;55.678;12.464;2024-03-17T03:19:50;3.60;99.90
48454;DHT22;34261;55.678;12.464;2024-03-17T03:22:21;3.60;99.90
48454;DHT22;34261;55.678;12.464;2024-03-17T03:24:47;3.60;99.90
48454;DHT22;34261;55.678;12.464;2024-03-17T03:27:13;3.70;99.90
48454;DHT22;34261;55.678;12.464;2024-03-17T03:29:39;3.70;99.90
48454;DHT22;34261;55.678;12.464;2024-03-17T03:32:04;3.80;99.90
48454;DHT22;34261;55.678;12.464;2024-03-17T03:34:30;3.70;99.90
48454;DHT22;34261;55.678;12.464;2024-03-17T03:36:56;3.60;99.90
48454;DHT22;34261;55.678;12.464;2024-03-17T03:39:21;3.60;99.90
48454;DHT22;34261;55.678;12.464;2024-03-17T03:41:47;3.60;99.90
48454;DHT22;34261;55.678;12.464;2024-03-17T03:44:13;3.50;99.90
48454;DHT22;34261;55.678;12.464;2024-03-17T03:46:38;3.50;99.90
48454;DHT22;34261;55.678;12.464;2024-03-17T03:49:04;3.40;99.90
48454;DHT22;34261;55.678;12.464;2024-03-17T03:51:30;3.40;99.90
48454;DHT22;34261;55.678;12.464;2024-03-17T03:53:56;3.40;99.90
48454;DHT22;34261;55.678;12.464;2024-03-17T03:56:21;3.40;99.90
48454;DHT22;34261;55.678;12.464;2024-03-17T03:58:48;3.40;99.90
48454;DHT22;34261;55.678;12.464;2024-03-17T04:01:15;3.40;99.90
48454;DHT22;34261;55.678;12.464;2024-03-17T04:03:47;3.40;99.90
48454;DHT22;34261;55.678;12.464;2024-03-17T04:06:16;3.50;99.90
48454;DHT22;34261;55.678;12.464;2024-03-17T04:08:42;3.60;99.90
48454;DHT22;34261;55.678;12.464;2024-03-17T04:11:09;3.60;99.90
48454;DHT22;34261;55.678;12.464;2024-03-17T04:13:42;3.60;99.90
48454;DHT22;34261;55.678;12.464;2024-03-17T04:16:07;3.60;99.90
48454;DHT22;34261;55.678;12.464;2024-03-17T04:18:33;3.60;99.90
48454;DHT22;34261;55.678;12.464;2024-03-17T04:21:05;3.50;99.90
48454;DHT22;34261;55.678;12.464;2024-03-17T04:23:34;3.50;99.90
48454;DHT22;34261;55.678;12.464;2024-03-17T04:26:00;3.40;99.90
48454;DHT22;34261;55.678;12.464;2024-03-17T04:28:28;3.30;99.90
48454;DHT22;34261;55.678;12.464;2024-03-17T04:31:04;3.30;99.90
48454;DHT22;34261;55.678;12.464;2024-03-17T04:33:34;3.30;99.90
48454;DHT22;34261;55.678;12.464;2024-03-17T04:36:01;3.20;99.90
48454;DHT22;34261;55.678;12.464;2024-03-17T04:38:30;3.20;99.90
48454;DHT22;34261;55.678;12.464;2024-03-17T04:40:56;3.30;99.90
48454;DHT22;34261;55.678;12.464;2024-03-17T04:43:32;3.20;99.90
48454;DHT22;34261;55.678;12.464;2024-03-17T04:46:04;3.20;99.90
48454;DHT22;34261;55.678;12.464;2024-03-17T04:48:32;3.10;99.90
48454;DHT22;34261;55.678;12.464;2024-03-17T04:50:58;3.10;99.90
48454;DHT22;34261;55.678;12.464;2024-03-17T04:53:26;3.00;99.90
48454;DHT22;34261;55.678;12.464;2024-03-17T04:56:04;3.10;99.90
48454;DHT22;34261;55.678;12.464;2024-03-17T04:58:34;3.10;99.90
48454;DHT22;34261;55.678;12.464;2024-03-17T05:01:06;3.10;99.90
48454;DHT22;34261;55.678;12.464;2024-03-17T05:03:32;3.20;99.90
48454;DHT22;34261;55.678;12.464;2024-03-17T05:06:00;3.20;99.90
48454;DHT22;34261;55.678;12.464;2024-03-17T05:08:27;3.20;99.90
48454;DHT22;34261;55.678;12.464;2024-03-17T05:10:57;3.10;99.90
48454;DHT22;34261;55.678;12.464;2024-03-17T05:13:24;3.00;99.90
48454;DHT22;34261;55.678;12.464;2024-03-17T05:15:52;2.90;99.90
48454;DHT22;34261;55.678;12.464;2024-03-17T05:18:18;2.90;99.90
48454;DHT22;34261;55.678;12.464;2024-03-17T05:20:45;2.90;99.90
48454;DHT22;34261;55.678;12.464;2024-03-17T05:23:12;2.80;99.90
48454;DHT22;34261;55.678;12.464;2024-03-17T05:25:40;2.80;99.90
48454;DHT22;34261;55.678;12.464;2024-03-17T05:28:05;2.80;99.90
48454;DHT22;34261;55.678;12.464;2024-03-17T05:30:35;2.80;99.90
48454;DHT22;34261;55.678;12.464;2024-03-17T05:33:42;2.80;99.90
48454;DHT22;34261;55.678;12.464;2024-03-17T05:36:08;2.80;99.90
48454;DHT22;34261;55.678;12.464;2024-03-17T05:38:34;2.80;99.90
48454;DHT22;34261;55.678;12.464;2024-03-17T05:41:00;3.00;99.90
48454;DHT22;34261;55.678;12.464;2024-03-17T05:43:27;3.00;99.90
48454;DHT22;34261;55.678;12.464;2024-03-17T05:46:03;3.10;99.90
48454;DHT22;34261;55.678;12.464;2024-03-17T05:48:29;3.10;99.90
48454;DHT22;34261;55.678;12.464;2024-03-17T05:50:56;3.20;99.90
48454;DHT22;34261;55.678;12.464;2024-03-17T05:53:22;3.20;99.90
48454;DHT22;34261;55.678;12.464;2024-03-17T05:55:49;3.10;99.90
48454;DHT22;34261;55.678;12.464;2024-03-17T05:58:15;3.10;99.90
48454;DHT22;34261;55.678;12.464;2024-03-17T06:00:41;3.10;99.90
48454;DHT22;34261;55.678;12.464;2024-03-17T06:03:06;3.20;99.90
48454;DHT22;34261;55.678;12.464;2024-03-17T06:05:32;3.20;99.90
48454;DHT22;34261;55.678;12.464;2024-03-17T06:08:00;3.30;99.90
48454;DHT22;34261;55.678;12.464;2024-03-17T06:10:27;3.40;99.90
48454;DHT22;34261;55.678;12.464;2024-03-17T06:12:53;3.40;99.90
48454;DHT22;34261;55.678;12.464;2024-03-17T06:15:18;3.50;99.90
48454;DHT22;34261;55.678;12.464;2024-03-17T06:17:46;3.50;99.90
48454;DHT22;34261;55.678;12.464;2024-03-17T06:20:11;3.50;99.90
48454;DHT22;34261;55.678;12.464;2024-03-17T06:22:40;3.50;99.90
48454;DHT22;34261;55.678;12.464;2024-03-17T06:25:15;3.50;99.90
48454;DHT22;34261;55.678;12.464;2024-03-17T06:27:41;3.50;99.90
48454;DHT22;34261;55.678;12.464;2024-03-17T06:30:15;3.50;99.90
48454;DHT22;34261;55.678;12.464;2024-03-17T06:32:49;3.50;99.90
48454;DHT22;34261;55.678;12.464;2024-03-17T06:35:19;3.50;99.90
48454;DHT22;34261;55.678;12.464;2024-03-17T06:37:44;3.50;99.90
48454;DHT22;34261;55.678;12.464;2024-03-17T06:40:14;3.60;99.90
48454;DHT22;34261;55.678;12.464;2024-03-17T06:42:40;3.60;99.90
48454;DHT22;34261;55.678;12.464;2024-03-17T06:45:08;3.70;99.90
48454;DHT22;34261;55.678;12.464;2024-03-17T06:47:37;3.70;99.90
48454;DHT22;34261;55.678;12.464;2024-03-17T06:50:24;3.70;99.90
48454;DHT22;34261;55.678;12.464;2024-03-17T06:52:50;3.70;99.90
48454;DHT22;34261;55.678;12.464;2024-03-17T06:55:17;3.70;99.90
48454;DHT22;34261;55.678;12.464;2024-03-17T06:57:43;3.70;99.90
48454;DHT22;34261;55.678;12.464;2024-03-17T07:00:16;3.70;99.90
48454;DHT22;34261;55.678;12.464;2024-03-17T07:02:49;3.70;99.90
48454;DHT22;34261;55.678;12.464;2024-03-17T07:05:16;3.80;99.90
48454;DHT22;34261;55.678;12.464;2024-03-17T07:07:44;3.80;99.90
48454;DHT22;34261;55.678;12.464;2024-03-17T07:10:13;3.90;99.90
48454;DHT22;34261;55.678;12.464;2024-03-17T07:12:41;3.90;99.90
48454;DHT22;34261;55.678;12.464;2024-03-17T07:15:07;3.90;99.90
48454;DHT22;34261;55.678;12.464;2024-03-17T07:17:33;4.10;99.90
48454;DHT22;34261;55.678;12.464;2024-03-17T07:19:59;4.10;99.90
48454;DHT22;34261;55.678;12.464;2024-03-17T07:22:26;4.00;99.90
48454;DHT22;34261;55.678;12.464;2024-03-17T07:24:53;4.10;99.90
48454;DHT22;34261;55.678;12.464;2024-03-17T07:27:29;4.10;99.90
48454;DHT22;34261;55.678;12.464;2024-03-17T07:29:54;4.20;99.90
48454;DHT22;34261;55.678;12.464;2024-03-17T07:32:22;4.30;99.90
48454;DHT22;34261;55.678;12.464;2024-03-17T07:34:49;4.20;99.90
48454;DHT22;34261;55.678;12.464;2024-03-17T07:37:18;4.30;99.90
48454;DHT22;34261;55.678;12.464;2024-03-17T07:39:44;4.30;99.90
48454;DHT22;34261;55.678;12.464;2024-03-17T07:42:54;4.20;99.90
48454;DHT22;34261;55.678;12.464;2024-03-17T07:45:29;4.20;99.90
48454;DHT22;34261;55.678;12.464;2024-03-17T07:47:59;4.30;99.90
48454;DHT22;34261;55.678;12.464;2024-03-17T07:50:29;4.30;99.90
48454;DHT22;34261;55.678;12.464;2024-03-17T07:52:58;4.40;99.90
48454;DHT22;34261;55.678;12.464;2024-03-17T07:55:24;4.30;99.90
48454;DHT22;34261;55.678;12.464;2024-03-17T07:57:51;4.30;99.90
48454;DHT22;34261;55.678;12.464;2024-03-17T08:00:17;4.40;99.90
48454;DHT22;34261;55.678;12.464;2024-03-17T08:02:46;4.40;99.90
48454;DHT22;34261;55.678;12.464;2024-03-17T08:05:12;4.40;99.90
48454;DHT22;34261;55.678;12.464;2024-03-17T08:07:39;4.50;99.90
48454;DHT22;34261;55.678;12.464;2024-03-17T08:10:04;4.40;99.90
48454;DHT22;34261;55.678;12.464;2024-03-17T08:12:30;4.60;99.90
48454;DHT22;34261;55.678;12.464;2024-03-17T08:14:56;4.70;99.90
48454;DHT22;34261;55.678;12.464;2024-03-17T08:17:22;4.60;99.90
48454;DHT22;34261;55.678;12.464;2024-03-17T08:19:47;4.70;99.90
48454;DHT22;34261;55.678;12.464;2024-03-17T08:22:23;4.80;99.90
48454;DHT22;34261;55.678;12.464;2024-03-17T08:25:01;4.90;99.90
48454;DHT22;34261;55.678;12.464;2024-03-17T08:27:32;4.60;99.90
48454;DHT22;34261;55.678;12.464;2024-03-17T08:30:11;4.60;99.90
48454;DHT22;34261;55.678;12.464;2024-03-17T08:33:09;4.70;99.90
48454;DHT22;34261;55.678;12.464;2024-03-17T08:36:00;4.90;99.90
48454;DHT22;34261;55.678;12.464;2024-03-17T08:38:29;4.90;99.90
48454;DHT22;34261;55.678;12.464;2024-03-17T08:41:57;4.80;99.90
48454;DHT22;34261;55.678;12.464;2024-03-17T08:44:55;5.10;99.90
48454;DHT22;34261;55.678;12.464;2024-03-17T08:47:21;5.10;99.90
48454;DHT22;34261;55.678;12.464;2024-03-17T08:49:50;5.20;99.90
48454;DHT22;34261;55.678;12.464;2024-03-17T08:52:15;5.20;99.90
48454;DHT22;34261;55.678;12.464;2024-03-17T08:54:41;5.30;99.90
48454;DHT22;34261;55.678;12.464;2024-03-17T08:57:07;5.20;99.90
48454;DHT22;34261;55.678;12.464;2024-03-17T08:59:34;5.00;99.90
48454;DHT22;34261;55.678;12.464;2024-03-17T09:02:02;4.80;99.90
48454;DHT22;34261;55.678;12.464;2024-03-17T09:04:31;4.90;99.90
48454;DHT22;34261;55.678;12.464;2024-03-17T09:06:57;5.00;99.90
48454;DHT22;34261;55.678;12.464;2024-03-17T09:09:23;5.30;99.90
48454;DHT22;34261;55.678;12.464;2024-03-17T09:11:48;5.40;99.90
48454;DHT22;34261;55.678;12.464;2024-03-17T09:14:14;5.50;99.90
48454;DHT22;34261;55.678;12.464;2024-03-17T09:16:39;5.70;99.90
48454;DHT22;34261;55.678;12.464;2024-03-17T09:19:08;5.80;99.90
48454;DHT22;34261;55.678;12.464;2024-03-17T09:21:37;5.90;99.90
48454;DHT22;34261;55.678;12.464;2024-03-17T09:24:08;5.70;99.90
48454;DHT22;34261;55.678;12.464;2024-03-17T09:26:37;5.90;99.90
48454;DHT22;34261;55.678;12.464;2024-03-17T09:29:24;6.10;99.90
48454;DHT22;34261;55.678;12.464;2024-03-17T09:31:50;6.30;99.90
48454;DHT22;34261;55.678;12.464;2024-03-17T09:34:18;6.30;99.90
48454;DHT22;34261;55.678;12.464;2024-03-17T09:36:46;6.20;99.90
48454;DHT22;34261;55.678;12.464;2024-03-17T09:39:12;6.10;99.90
48454;DHT22;34261;55.678;12.464;2024-03-17T09:41:45;6.20;99.90
48454;DHT22;34261;55.678;12.464;2024-03-17T09:44:12;6.40;99.90
48454;DHT22;34261;55.678;12.464;2024-03-17T09:46:42;6.60;99.90
48454;DHT22;34261;55.678;12.464;2024-03-17T09:49:14;6.70;99.90
48454;DHT22;34261;55.678;12.464;2024-03-17T09:51:40;6.80;99.90
48454;DHT22;34261;55.678;12.464;2024-03-17T09:54:18;7.00;99.90
48454;DHT22;34261;55.678;12.464;2024-03-17T09:56:44;7.00;99.90
48454;DHT22;34261;55.678;12.464;2024-03-17T09:59:10;7.10;99.90
48454;DHT22;34261;55.678;12.464;2024-03-17T10:01:37;7.30;99.90
48454;DHT22;34261;55.678;12.464;2024-03-17T10:04:09;7.20;99.90
48454;DHT22;34261;55.678;12.464;2024-03-17T10:06:44;7.30;99.90
48454;DHT22;34261;55.678;12.464;2024-03-17T10:09:10;7.40;99.90
48454;DHT22;34261;55.678;12.464;2024-03-17T10:11:46;7.50;99.20
48454;DHT22;34261;55.678;12.464;2024-03-17T10:14:12;7.70;99.10
48454;DHT22;34261;55.678;12.464;2024-03-17T10:16:41;7.70;98.40
48454;DHT22;34261;55.678;12.464;2024-03-17T10:19:13;7.60;97.90
48454;DHT22;34261;55.678;12.464;2024-03-17T10:21:39;7.70;98.50
48454;DHT22;34261;55.678;12.464;2024-03-17T10:24:06;7.70;98.40
48454;DHT22;34261;55.678;12.464;2024-03-17T10:26:51;7.70;98.20
48454;DHT22;34261;55.678;12.464;2024-03-17T10:29:27;7.70;98.00
48454;DHT22;34261;55.678;12.464;2024-03-17T10:31:55;7.70;97.80
48454;DHT22;34261;55.678;12.464;2024-03-17T10:34:21;7.60;97.50
48454;DHT22;34261;55.678;12.464;2024-03-17T10:36:50;7.90;98.10
48454;DHT22;34261;55.678;12.464;2024-03-17T10:39:26;8.20;97.50
48454;DHT22;34261;55.678;12.464;2024-03-17T10:42:02;8.30;97.20
48454;DHT22;34261;55.678;12.464;2024-03-17T10:44:32;8.30;96.30
48454;DHT22;34261;55.678;12.464;2024-03-17T10:46:58;8.40;96.80
48454;DHT22;34261;55.678;12.464;2024-03-17T10:49:28;8.50;97.10
48454;DHT22;34261;55.678;12.464;2024-03-17T10:52:03;8.60;97.20
48454;DHT22;34261;55.678;12.464;2024-03-17T10:54:32;8.30;96.60
48454;DHT22;34261;55.678;12.464;2024-03-17T10:59:46;8.60;96.90
48454;DHT22;34261;55.678;12.464;2024-03-17T11:02:25;8.40;95.80
48454;DHT22;34261;55.678;12.464;2024-03-17T11:04:51;8.60;95.90
48454;DHT22;34261;55.678;12.464;2024-03-17T11:07:18;8.80;96.10
48454;DHT22;34261;55.678;12.464;2024-03-17T11:09:47;8.90;96.50
48454;DHT22;34261;55.678;12.464;2024-03-17T11:17:45;9.20;95.10
48454;DHT22;34261;55.678;12.464;2024-03-17T11:20:17;9.50;95.40
48454;DHT22;34261;55.678;12.464;2024-03-17T11:22:58;9.80;95.40
48454;DHT22;34261;55.678;12.464;2024-03-17T11:27:58;9.90;94.50
48454;DHT22;34261;55.678;12.464;2024-03-17T11:38:51;10.00;93.20
48454;DHT22;34261;55.678;12.464;2024-03-17T11:47:02;10.70;94.00
48454;DHT22;34261;55.678;12.464;2024-03-17T11:51:55;10.20;94.30
48454;DHT22;34261;55.678;12.464;2024-03-17T11:54:24;10.30;94.50
48454;DHT22;34261;55.678;12.464;2024-03-17T11:56:53;10.40;93.90
48454;DHT22;34261;55.678;12.464;2024-03-17T11:59:19;10.80;94.60
48454;DHT22;34261;55.678;12.464;2024-03-17T12:01:46;11.10;93.50
48454;DHT22;34261;55.678;12.464;2024-03-17T12:04:20;10.90;93.10
48454;DHT22;34261;55.678;12.464;2024-03-17T12:09:29;10.80;93.00
48454;DHT22;34261;55.678;12.464;2024-03-17T12:12:00;10.80;93.10
48454;DHT22;34261;55.678;12.464;2024-03-17T12:14:26;10.70;93.60
48454;DHT22;34261;55.678;12.464;2024-03-17T12:19:18;10.80;93.60
48454;DHT22;34261;55.678;12.464;2024-03-17T12:21:45;10.60;92.80
48454;DHT22;34261;55.678;12.464;2024-03-17T12:24:15;10.70;93.10
48454;DHT22;34261;55.678;12.464;2024-03-17T12:26:42;10.90;92.90
48454;DHT22;34261;55.678;12.464;2024-03-17T12:32:24;10.90;92.70
48454;DHT22;34261;55.678;12.464;2024-03-17T12:34:51;11.10;92.10
48454;DHT22;34261;55.678;12.464;2024-03-17T12:37:19;11.10;92.00
48454;DHT22;34261;55.678;12.464;2024-03-17T12:39:45;11.00;92.60
48454;DHT22;34261;55.678;12.464;2024-03-17T12:42:12;11.10;92.20
48454;DHT22;34261;55.678;12.464;2024-03-17T12:44:58;11.00;91.90
48454;DHT22;34261;55.678;12.464;2024-03-17T12:47:25;11.10;92.00
48454;DHT22;34261;55.678;12.464;2024-03-17T12:49:52;11.20;91.60
48454;DHT22;34261;55.678;12.464;2024-03-17T12:52:18;11.30;92.30
48454;DHT22;34261;55.678;12.464;2024-03-17T12:57:44;11.10;91.30
48454;DHT22;34261;55.678;12.464;2024-03-17T13:00:28;11.70;91.90
48454;DHT22;34261;55.678;12.464;2024-03-17T13:02:57;11.90;91.60
48454;DHT22;34261;55.678;12.464;2024-03-17T13:05:23;12.20;91.20
48454;DHT22;34261;55.678;12.464;2024-03-17T13:07:50;12.10;90.40
48454;DHT22;34261;55.678;12.464;2024-03-17T13:10:17;11.70;90.10
48454;DHT22;34261;55.678;12.464;2024-03-17T13:12:45;11.50;90.20
48454;DHT22;34261;55.678;12.464;2024-03-17T13:15:15;11.00;90.90
48454;DHT22;34261;55.678;12.464;2024-03-17T13:17:52;11.00;90.80
48454;DHT22;34261;55.678;12.464;2024-03-17T13:20:20;11.30;91.20
48454;DHT22;34261;55.678;12.464;2024-03-17T13:22:46;11.70;91.00
48454;DHT22;34261;55.678;12.464;2024-03-17T13:25:13;11.90;90.30
48454;DHT22;34261;55.678;12.464;2024-03-17T13:28:01;11.70;90.20
48454;DHT22;34261;55.678;12.464;2024-03-17T13:30:31;12.00;90.80
48454;DHT22;34261;55.678;12.464;2024-03-17T13:33:08;12.30;91.30
48454;DHT22;34261;55.678;12.464;2024-03-17T13:35:36;12.30;90.30
48454;DHT22;34261;55.678;12.464;2024-03-17T13:38:12;12.30;89.90
48454;DHT22;34261;55.678;12.464;2024-03-17T13:40:39;12.30;90.20
48454;DHT22;34261;55.678;12.464;2024-03-17T13:43:05;12.30;90.00
48454;DHT22;34261;55.678;12.464;2024-03-17T13:45:40;12.70;90.50
48454;DHT22;34261;55.678;12.464;2024-03-17T13:48:11;13.10;90.10
48454;DHT22;34261;55.678;12.464;2024-03-17T13:50:40;13.00;87.40
48454;DHT22;34261;55.678;12.464;2024-03-17T13:53:11;12.90;87.80
48454;DHT22;34261;55.678;12.464;2024-03-17T13:55:43;12.60;88.40
48454;DHT22;34261;55.678;12.464;2024-03-17T13:58:11;12.70;91.20
48454;DHT22;34261;55.678;12.464;2024-03-17T14:00:37;12.90;87.30
48454;DHT22;34261;55.678;12.464;2024-03-17T14:03:17;13.00;87.30
48454;DHT22;34261;55.678;12.464;2024-03-17T14:05:43;12.90;87.50
48454;DHT22;34261;55.678;12.464;2024-03-17T14:08:09;12.90;86.40
48454;DHT22;34261;55.678;12.464;2024-03-17T14:10:34;13.20;85.60
48454;DHT22;34261;55.678;12.464;2024-03-17T14:13:01;13.30;85.90
48454;DHT22;34261;55.678;12.464;2024-03-17T14:15:27;13.40;85.80
48454;DHT22;34261;55.678;12.464;2024-03-17T14:17:56;13.60;85.80
48454;DHT22;34261;55.678;12.464;2024-03-17T14:20:23;13.50;84.80
48454;DHT22;34261;55.678;12.464;2024-03-17T14:22:53;13.40;83.80
48454;DHT22;34261;55.678;12.464;2024-03-17T14:25:22;13.50;85.40
48454;DHT22;34261;55.678;12.464;2024-03-17T14:27:50;13.80;84.40
48454;DHT22;34261;55.678;12.464;2024-03-17T14:30:19;13.80;84.60
48454;DHT22;34261;55.678;12.464;2024-03-17T14:32:45;13.70;85.00
48454;DHT22;34261;55.678;12.464;2024-03-17T14:35:12;13.90;84.90
48454;DHT22;34261;55.678;12.464;2024-03-17T14:37:39;13.80;83.10
48454;DHT22;34261;55.678;12.464;2024-03-17T14:40:09;13.70;83.60
48454;DHT22;34261;55.678;12.464;2024-03-17T14:42:46;13.70;83.00
48454;DHT22;34261;55.678;12.464;2024-03-17T14:45:11;13.80;83.70
48454;DHT22;34261;55.678;12.464;2024-03-17T14:47:37;14.00;85.60
48454;DHT22;34261;55.678;12.464;2024-03-17T14:50:03;13.80;80.70
48454;DHT22;34261;55.678;12.464;2024-03-17T14:52:29;13.60;81.60
48454;DHT22;34261;55.678;12.464;2024-03-17T14:54:56;13.70;81.70
48454;DHT22;34261;55.678;12.464;2024-03-17T14:57:22;14.00;82.30
48454;DHT22;34261;55.678;12.464;2024-03-17T14:59:48;14.10;81.00
48454;DHT22;34261;55.678;12.464;2024-03-17T15:02:13;14.10;82.70
48454;DHT22;34261;55.678;12.464;2024-03-17T15:04:41;14.20;79.70
48454;DHT22;34261;55.678;12.464;2024-03-17T15:07:08;14.20;79.50
48454;DHT22;34261;55.678;12.464;2024-03-17T15:09:34;14.50;80.20
48454;DHT22;34261;55.678;12.464;2024-03-17T15:12:00;14.40;77.30
48454;DHT22;34261;55.678;12.464;2024-03-17T15:14:29;14.50;78.00
48454;DHT22;34261;55.678;12.464;2024-03-17T15:16:57;14.70;80.00
48454;DHT22;34261;55.678;12.464;2024-03-17T15:19:22;14.70;77.50
48454;DHT22;34261;55.678;12.464;2024-03-17T15:21:48;14.40;79.90
48454;DHT22;34261;55.678;12.464;2024-03-17T15:24:14;14.00;80.30
48454;DHT22;34261;55.678;12.464;2024-03-17T15:26:39;13.30;80.70
48454;DHT22;34261;55.678;12.464;2024-03-17T15:29:05;13.20;80.90
48454;DHT22;34261;55.678;12.464;2024-03-17T15:31:31;13.10;81.80
48454;DHT22;34261;55.678;12.464;2024-03-17T15:33:57;13.10;82.90
48454;DHT22;34261;55.678;12.464;2024-03-17T15:36:23;13.00;81.20
48454;DHT22;34261;55.678;12.464;2024-03-17T15:38:52;13.10;81.90
48454;DHT22;34261;55.678;12.464;2024-03-17T15:41:20;13.20;82.20
48454;DHT22;34261;55.678;12.464;2024-03-17T15:43:46;13.20;81.60
48454;DHT22;34261;55.678;12.464;2024-03-17T15:46:16;13.20;80.90
48454;DHT22;34261;55.678;12.464;2024-03-17T15:48:43;12.70;81.60
48454;DHT22;34261;55.678;12.464;2024-03-17T15:51:09;12.70;81.90
48454;DHT22;34261;55.678;12.464;2024-03-17T15:53:35;12.70;81.90
48454;DHT22;34261;55.678;12.464;2024-03-17T15:56:04;12.70;82.00
48454;DHT22;34261;55.678;12.464;2024-03-17T15:58:32;12.70;82.40
48454;DHT22;34261;55.678;12.464;2024-03-17T16:00:59;12.60;81.90
48454;DHT22;34261;55.678;12.464;2024-03-17T16:03:31;12.70;82.20
48454;DHT22;34261;55.678;12.464;2024-03-17T16:06:01;12.50;82.10
48454;DHT22;34261;55.678;12.464;2024-03-17T16:08:27;12.60;82.10
48454;DHT22;34261;55.678;12.464;2024-03-17T16:10:55;12.30;81.90
48454;DHT22;34261;55.678;12.464;2024-03-17T16:13:27;11.80;82.90
48454;DHT22;34261;55.678;12.464;2024-03-17T16:15:57;11.40;83.20
48454;DHT22;34261;55.678;12.464;2024-03-17T16:18:23;11.10;84.70
48454;DHT22;34261;55.678;12.464;2024-03-17T16:23:22;10.50;85.60
48454;DHT22;34261;55.678;12.464;2024-03-17T16:25:51;10.30;85.00
48454;DHT22;34261;55.678;12.464;2024-03-17T16:28:24;10.10;86.20
48454;DHT22;34261;55.678;12.464;2024-03-17T16:30:50;9.90;87.10
48454;DHT22;34261;55.678;12.464;2024-03-17T16:33:16;9.70;87.80
48454;DHT22;34261;55.678;12.464;2024-03-17T16:35:42;9.60;87.60
48454;DHT22;34261;55.678;12.464;2024-03-17T16:38:13;9.40;88.20
48454;DHT22;34261;55.678;12.464;2024-03-17T16:40:39;9.30;89.50
48454;DHT22;34261;55.678;12.464;2024-03-17T16:43:04;9.00;89.10
48454;DHT22;34261;55.678;12.464;2024-03-17T16:45:30;8.90;90.30
48454;DHT22;34261;55.678;12.464;2024-03-17T16:47:56;8.70;90.10
48454;DHT22;34261;55.678;12.464;2024-03-17T16:50:22;8.50;90.70
48454;DHT22;34261;55.678;12.464;2024-03-17T16:52:47;8.30;90.70
48454;DHT22;34261;55.678;12.464;2024-03-17T16:55:13;8.10;90.70
48454;DHT22;34261;55.678;12.464;2024-03-17T16:57:39;8.00;91.30
48454;DHT22;34261;55.678;12.464;2024-03-17T17:00:05;7.70;91.10
48454;DHT22;34261;55.678;12.464;2024-03-17T17:02:42;7.60;91.70
48454;DHT22;34261;55.678;12.464;2024-03-17T17:05:09;7.60;91.60
48454;DHT22;34261;55.678;12.464;2024-03-17T17:07:41;7.60;91.70
48454;DHT22;34261;55.678;12.464;2024-03-17T17:10:16;7.50;91.80
48454;DHT22;34261;55.678;12.464;2024-03-17T17:12:41;7.40;92.30
48454;DHT22;34261;55.678;12.464;2024-03-17T17:15:18;7.30;92.40
48454;DHT22;34261;55.678;12.464;2024-03-17T17:17:44;7.30;92.40
48454;DHT22;34261;55.678;12.464;2024-03-17T17:20:10;7.20;92.60
48454;DHT22;34261;55.678;12.464;2024-03-17T17:22:41;7.10;92.80
48454;DHT22;34261;55.678;12.464;2024-03-17T17:25:08;7.10;93.00
48454;DHT22;34261;55.678;12.464;2024-03-17T17:27:37;7.00;92.90
48454;DHT22;34261;55.678;12.464;2024-03-17T17:30:06;6.90;93.10
48454;DHT22;34261;55.678;12.464;2024-03-17T17:32:42;6.80;93.60
48454;DHT22;34261;55.678;12.464;2024-03-17T17:35:09;6.80;93.50
48454;DHT22;34261;55.678;12.464;2024-03-17T17:37:35;6.60;93.60
48454;DHT22;34261;55.678;12.464;2024-03-17T17:40:04;6.60;93.80
48454;DHT22;34261;55.678;12.464;2024-03-17T17:42:34;6.50;94.00
48454;DHT22;34261;55.678;12.464;2024-03-17T17:44:59;6.40;93.90